Time;durP1;ratioP1;P1;durP2;ratioP2;P2;SDS_P1;SDS_P2;PMS_P1;PMS_P2;Temp;Humidity;BMP_temperature;BMP_pressure;BME280_temperature;BME280_humidity;BME280_pressure;Samples;Min_cycle;Max_cycle;Signal;HPM_P1;HPM_P2
2023/06/22 00:01:47;;;;;;;;;;;27.50;48.00;;;;;;5059261;28;19917;-52
2023/06/22 00:04:13;;;;;;;;;;;27.50;48.00;;;;;;5075640;28;19912;-53
2023/06/22 00:06:38;;;;;;;;;;;27.50;48.00;;;;;;5070850;28;19913;-52
2023/06/22 00:09:04;;;;;;;;;;;27.50;48.10;;;;;;5075213;28;19912;-54
2023/06/22 00:11:31;;;;;;;;;;;27.50;48.20;;;;;;5107609;28;19909;-55
2023/06/22 00:13:56;;;;;;;;;;;27.50;48.00;;;;;;5074212;28;20413;-54
2023/06/22 00:16:22;;;;;;;;;;;27.50;48.10;;;;;;5075228;28;19952;-55
2023/06/22 00:18:48;;;;;;;;;;;27.50;48.10;;;;;;5075222;28;20376;-54
2023/06/22 00:21:14;;;;;;;;;;;27.50;48.30;;;;;;5074080;28;19917;-54
2023/06/22 00:23:39;;;;;;;;;;;27.40;48.20;;;;;;5070870;28;19932;-55
2023/06/22 00:26:05;;;;;;;;;;;27.40;48.30;;;;;;5059418;28;19920;-54
2023/06/22 00:28:30;;;;;;;;;;;27.50;48.30;;;;;;5075032;28;19912;-54
2023/06/22 00:30:56;;;;;;;;;;;27.50;48.30;;;;;;5075030;28;19916;-54
2023/06/22 00:33:21;;;;;;;;;;;27.40;48.30;;;;;;5075191;28;19916;-54
2023/06/22 00:35:46;;;;;;;;;;;27.40;48.20;;;;;;5073758;28;19935;-55
2023/06/22 00:38:12;;;;;;;;;;;27.40;48.50;;;;;;5074928;28;19936;-54
2023/06/22 00:40:37;;;;;;;;;;;27.30;48.30;;;;;;5073143;28;19962;-54
2023/06/22 00:43:03;;;;;;;;;;;27.40;48.40;;;;;;5074858;28;19919;-55
2023/06/22 00:45:28;;;;;;;;;;;27.40;48.50;;;;;;5074786;28;20359;-54
2023/06/22 00:47:54;;;;;;;;;;;27.40;48.50;;;;;;5074907;28;19999;-54
2023/06/22 00:50:20;;;;;;;;;;;27.40;48.70;;;;;;5071104;28;20376;-54
2023/06/22 00:52:58;;;;;;;;;;;27.40;48.60;;;;;;5073410;28;20292;-54
2023/06/22 00:55:25;;;;;;;;;;;27.40;48.70;;;;;;5072639;28;19936;-55
2023/06/22 00:57:55;;;;;;;;;;;27.40;49.30;;;;;;5055722;28;20277;-54
2023/06/22 01:00:24;;;;;;;;;;;27.40;48.70;;;;;;5073165;28;19915;-54
2023/06/22 01:02:51;;;;;;;;;;;27.40;49.30;;;;;;5067217;28;20335;-54
2023/06/22 01:05:17;;;;;;;;;;;27.40;48.70;;;;;;5073690;28;19923;-54
2023/06/22 01:07:45;;;;;;;;;;;27.40;48.70;;;;;;5074398;28;19913;-54
2023/06/22 01:10:37;;;;;;;;;;;27.40;48.70;;;;;;5073852;28;20376;-54
2023/06/22 01:13:04;;;;;;;;;;;27.40;48.70;;;;;;5071469;28;19908;-54
2023/06/22 01:15:37;;;;;;;;;;;27.30;48.70;;;;;;5074143;28;20010;-55
2023/06/22 01:18:04;;;;;;;;;;;27.40;48.80;;;;;;5073204;28;20369;-55
2023/06/22 01:20:29;;;;;;;;;;;27.40;48.80;;;;;;5073374;28;20010;-52
2023/06/22 01:23:11;;;;;;;;;;;27.40;48.80;;;;;;5074211;28;19920;-52
2023/06/22 01:25:45;;;;;;;;;;;27.30;48.70;;;;;;5073784;28;20285;-52
2023/06/22 01:28:17;;;;;;;;;;;27.40;48.80;;;;;;5071046;28;20007;-52
2023/06/22 01:30:43;;;;;;;;;;;27.30;48.80;;;;;;5085882;28;19909;-52
2023/06/22 01:33:10;;;;;;;;;;;27.30;48.90;;;;;;5062253;28;19920;-52
2023/06/22 01:35:35;;;;;;;;;;;27.30;48.90;;;;;;5069356;28;19919;-52
2023/06/22 01:38:01;;;;;;;;;;;27.30;49.00;;;;;;5093027;28;20367;-53
2023/06/22 01:40:26;;;;;;;;;;;27.30;48.90;;;;;;5057463;28;19935;-52
2023/06/22 01:42:52;;;;;;;;;;;27.20;49.00;;;;;;5066606;28;19940;-52
2023/06/22 01:45:17;;;;;;;;;;;27.30;49.00;;;;;;5052124;28;20008;-52
2023/06/22 01:47:43;;;;;;;;;;;27.20;49.00;;;;;;5061555;28;19912;-52
2023/06/22 01:50:08;;;;;;;;;;;27.20;49.00;;;;;;5073369;28;19912;-52
2023/06/22 01:52:34;;;;;;;;;;;27.20;49.00;;;;;;5057428;28;20406;-52
2023/06/22 01:54:59;;;;;;;;;;;27.20;49.10;;;;;;5051694;28;19917;-52
2023/06/22 01:57:25;;;;;;;;;;;27.20;49.20;;;;;;5071310;28;20392;-53
2023/06/22 01:59:53;;;;;;;;;;;27.20;49.20;;;;;;5072357;28;20023;-53
2023/06/22 02:02:19;;;;;;;;;;;27.20;49.30;;;;;;5072336;28;19929;-53
2023/06/22 02:04:51;;;;;;;;;;;27.20;49.20;;;;;;5105570;28;19908;-53
2023/06/22 02:07:17;;;;;;;;;;;27.20;49.30;;;;;;5094513;28;19955;-52
2023/06/22 02:09:44;;;;;;;;;;;27.10;49.30;;;;;;5060655;28;19956;-53
2023/06/22 02:12:10;;;;;;;;;;;27.20;49.30;;;;;;5053346;28;19913;-53
2023/06/22 02:14:35;;;;;;;;;;;27.10;49.30;;;;;;5051857;28;19919;-53
2023/06/22 02:17:01;;;;;;;;;;;27.10;50.00;;;;;;5055097;28;19913;-53
2023/06/22 02:19:26;;;;;;;;;;;27.20;49.40;;;;;;5072807;28;19916;-53
2023/06/22 02:21:52;;;;;;;;;;;27.20;49.40;;;;;;5072421;28;20017;-52
2023/06/22 02:24:17;;;;;;;;;;;27.10;49.30;;;;;;5069391;28;19916;-52
2023/06/22 02:26:45;;;;;;;;;;;27.10;49.40;;;;;;5070500;28;19908;-53
2023/06/22 02:29:10;;;;;;;;;;;27.10;49.40;;;;;;5073009;28;20002;-52
2023/06/22 02:31:36;;;;;;;;;;;27.10;49.50;;;;;;5072712;28;19920;-53
2023/06/22 02:34:01;;;;;;;;;;;27.10;49.50;;;;;;5072574;28;19909;-53
2023/06/22 02:36:27;;;;;;;;;;;27.10;49.50;;;;;;5056717;28;19913;-52
2023/06/22 02:38:52;;;;;;;;;;;27.10;49.60;;;;;;5052723;28;19940;-52
2023/06/22 02:41:18;;;;;;;;;;;27.10;49.80;;;;;;5068022;28;20315;-52
2023/06/22 02:43:46;;;;;;;;;;;27.10;50.40;;;;;;5072739;28;19960;-52
2023/06/22 02:46:13;;;;;;;;;;;27.00;49.70;;;;;;5072206;28;19920;-52
2023/06/22 02:48:39;;;;;;;;;;;27.00;49.70;;;;;;5072569;28;19962;-52
2023/06/22 02:51:04;;;;;;;;;;;27.00;49.80;;;;;;5054933;28;20432;-52
2023/06/22 02:53:30;;;;;;;;;;;26.90;49.80;;;;;;5052615;28;19955;-53
2023/06/22 02:55:55;;;;;;;;;;;27.00;49.80;;;;;;5087624;28;20052;-53
2023/06/22 02:58:21;;;;;;;;;;;27.00;49.80;;;;;;5051348;28;20035;-52
2023/06/22 03:00:46;;;;;;;;;;;27.00;49.80;;;;;;5066633;28;19958;-52
2023/06/22 03:03:12;;;;;;;;;;;27.00;49.80;;;;;;5067394;28;20007;-53
2023/06/22 03:05:37;;;;;;;;;;;27.00;49.90;;;;;;5066771;28;20376;-53
2023/06/22 03:08:03;;;;;;;;;;;27.00;49.90;;;;;;5071241;28;20474;-52
2023/06/22 03:10:28;;;;;;;;;;;27.00;49.80;;;;;;5071933;28;20374;-53
2023/06/22 03:12:54;;;;;;;;;;;27.00;49.80;;;;;;5071302;28;19938;-52
2023/06/22 03:15:19;;;;;;;;;;;27.00;49.90;;;;;;5060210;28;19909;-52
2023/06/22 03:17:45;;;;;;;;;;;27.00;49.80;;;;;;5069498;28;20046;-52
2023/06/22 03:20:13;;;;;;;;;;;26.90;49.80;;;;;;5072446;28;19908;-53
2023/06/22 03:22:39;;;;;;;;;;;27.00;49.80;;;;;;5072221;28;19956;-52
2023/06/22 03:25:09;;;;;;;;;;;26.90;49.80;;;;;;5071387;28;20009;-53
2023/06/22 03:27:36;;;;;;;;;;;27.00;49.80;;;;;;5072476;28;19916;-53
2023/06/22 03:30:01;;;;;;;;;;;27.00;49.80;;;;;;5059440;28;19909;-52
2023/06/22 03:32:27;;;;;;;;;;;26.90;49.80;;;;;;5060391;28;20023;-53
2023/06/22 03:34:53;;;;;;;;;;;27.00;49.90;;;;;;5071641;28;19955;-52
2023/06/22 03:37:19;;;;;;;;;;;26.90;49.80;;;;;;5071932;28;19924;-52
2023/06/22 03:39:44;;;;;;;;;;;26.90;49.80;;;;;;5070016;28;20373;-52
2023/06/22 03:42:10;;;;;;;;;;;26.90;49.80;;;;;;5072102;28;20007;-52
2023/06/22 03:44:36;;;;;;;;;;;26.90;49.80;;;;;;5063694;28;19909;-52
2023/06/22 03:47:04;;;;;;;;;;;26.90;49.90;;;;;;5063597;28;19928;-52
2023/06/22 03:49:30;;;;;;;;;;;26.90;49.80;;;;;;5068846;28;19917;-52
2023/06/22 03:51:55;;;;;;;;;;;26.80;49.80;;;;;;5071759;28;19919;-52
2023/06/22 03:54:21;;;;;;;;;;;26.90;49.80;;;;;;5068166;28;20606;-52
2023/06/22 03:56:46;;;;;;;;;;;26.90;49.90;;;;;;5064227;28;19955;-53
2023/06/22 03:59:11;;;;;;;;;;;26.90;49.90;;;;;;5071953;28;19916;-52
2023/06/22 04:01:37;;;;;;;;;;;26.90;49.90;;;;;;5070402;28;19924;-53
2023/06/22 04:04:02;;;;;;;;;;;26.80;49.80;;;;;;5057007;28;19913;-53
2023/06/22 04:06:28;;;;;;;;;;;26.80;49.90;;;;;;5051877;28;20361;-52
2023/06/22 04:08:53;;;;;;;;;;;26.80;50.00;;;;;;5070958;28;19970;-53
2023/06/22 04:11:19;;;;;;;;;;;26.80;50.00;;;;;;5056079;28;19917;-52
2023/06/22 04:13:44;;;;;;;;;;;26.80;49.90;;;;;;5069414;28;20327;-52
2023/06/22 04:16:10;;;;;;;;;;;26.80;50.00;;;;;;5107750;28;19915;-52
2023/06/22 04:18:35;;;;;;;;;;;26.80;50.00;;;;;;5075413;28;19912;-53
2023/06/22 04:21:01;;;;;;;;;;;26.90;50.00;;;;;;5074799;28;19916;-53
2023/06/22 04:23:26;;;;;;;;;;;26.90;49.90;;;;;;5075191;28;20322;-52
2023/06/22 04:25:52;;;;;;;;;;;26.90;49.80;;;;;;5065533;28;20045;-52
2023/06/22 04:28:17;;;;;;;;;;;26.80;49.80;;;;;;5059703;28;19913;-52
2023/06/22 04:30:46;;;;;;;;;;;26.90;49.90;;;;;;5055012;28;19948;-52
2023/06/22 04:33:12;;;;;;;;;;;26.80;49.70;;;;;;5073732;28;19913;-52
2023/06/22 04:35:41;;;;;;;;;;;26.90;49.80;;;;;;5072065;28;19913;-52
2023/06/22 04:38:06;;;;;;;;;;;26.90;49.80;;;;;;5060312;28;19951;-52
2023/06/22 04:40:32;;;;;;;;;;;26.80;49.70;;;;;;5054116;28;19940;-54
2023/06/22 04:42:57;;;;;;;;;;;26.90;49.80;;;;;;5070446;28;19924;-53
2023/06/22 04:45:23;;;;;;;;;;;26.90;49.80;;;;;;5060670;28;20377;-53
2023/06/22 04:47:48;;;;;;;;;;;26.80;49.80;;;;;;5074957;28;20368;-52
2023/06/22 04:50:14;;;;;;;;;;;26.80;49.80;;;;;;5074810;28;19988;-52
2023/06/22 04:52:39;;;;;;;;;;;26.80;49.80;;;;;;5074788;28;20356;-53
2023/06/22 04:55:05;;;;;;;;;;;26.80;49.80;;;;;;5072821;28;19912;-52
2023/06/22 04:57:32;;;;;;;;;;;26.80;49.80;;;;;;5074331;28;19909;-52
2023/06/22 05:00:12;;;;;;;;;;;26.80;49.80;;;;;;5072674;28;20385;-52
2023/06/22 05:02:40;;;;;;;;;;;26.80;49.80;;;;;;5078584;28;19920;-52
2023/06/22 05:05:07;;;;;;;;;;;26.80;49.80;;;;;;5072417;28;19920;-52
2023/06/22 05:07:35;;;;;;;;;;;26.80;49.80;;;;;;5072309;28;19912;-52
2023/06/22 05:10:01;;;;;;;;;;;26.80;49.90;;;;;;5073742;28;19909;-52
2023/06/22 05:12:27;;;;;;;;;;;26.80;49.90;;;;;;5074538;28;20258;-53
2023/06/22 05:14:53;;;;;;;;;;;26.70;49.80;;;;;;5069097;28;19925;-52
2023/06/22 05:17:19;;;;;;;;;;;26.80;50.00;;;;;;5055626;28;20025;-52
2023/06/22 05:19:48;;;;;;;;;;;26.80;49.90;;;;;;5057398;28;19932;-53
2023/06/22 05:22:16;;;;;;;;;;;26.80;49.90;;;;;;5070604;28;20007;-52
2023/06/22 05:24:42;;;;;;;;;;;26.70;49.80;;;;;;5102669;28;19917;-53
2023/06/22 05:27:07;;;;;;;;;;;26.80;49.90;;;;;;5071781;28;19916;-52
2023/06/22 05:29:33;;;;;;;;;;;26.80;49.80;;;;;;5073621;28;19916;-52
2023/06/22 05:31:58;;;;;;;;;;;26.80;49.80;;;;;;5060309;28;19967;-53
2023/06/22 05:34:24;;;;;;;;;;;26.80;49.80;;;;;;5064843;28;19965;-53
2023/06/22 05:36:49;;;;;;;;;;;26.80;49.80;;;;;;5085731;28;20369;-53
2023/06/22 05:39:15;;;;;;;;;;;26.80;49.70;;;;;;5053467;28;20350;-52
2023/06/22 05:41:40;;;;;;;;;;;26.80;49.70;;;;;;5057484;28;20430;-52
2023/06/22 05:44:06;;;;;;;;;;;26.80;49.70;;;;;;5073850;28;20058;-52
2023/06/22 05:46:31;;;;;;;;;;;26.80;49.60;;;;;;5072743;28;19921;-53
2023/06/22 05:48:57;;;;;;;;;;;26.80;49.70;;;;;;5072105;28;20284;-52
2023/06/22 05:51:22;;;;;;;;;;;26.80;49.60;;;;;;5067356;28;19920;-53
2023/06/22 05:53:49;;;;;;;;;;;26.80;49.60;;;;;;5061624;28;19928;-53
2023/06/22 05:56:15;;;;;;;;;;;26.80;49.60;;;;;;5067146;28;20376;-52
2023/06/22 05:58:41;;;;;;;;;;;26.80;49.60;;;;;;5061068;28;19913;-52
2023/06/22 06:01:06;;;;;;;;;;;26.80;49.60;;;;;;5066058;28;20101;-52
2023/06/22 06:03:31;;;;;;;;;;;26.80;49.50;;;;;;5069059;28;20459;-52
2023/06/22 06:05:57;;;;;;;;;;;26.90;49.40;;;;;;5088054;28;19912;-54
2023/06/22 06:08:22;;;;;;;;;;;26.90;49.30;;;;;;5072288;28;19914;-54
2023/06/22 06:10:48;;;;;;;;;;;26.80;49.10;;;;;;5067416;28;19913;-53
2023/06/22 06:13:13;;;;;;;;;;;26.90;49.10;;;;;;5064985;28;19924;-54
2023/06/22 06:15:39;;;;;;;;;;;26.90;49.10;;;;;;5072327;28;19912;-53
2023/06/22 06:18:06;;;;;;;;;;;26.90;48.90;;;;;;5072560;28;20375;-54
2023/06/22 06:20:31;;;;;;;;;;;26.90;49.00;;;;;;5072112;28;19913;-54
2023/06/22 06:22:57;;;;;;;;;;;26.90;48.90;;;;;;5061171;28;19921;-54
2023/06/22 06:25:23;;;;;;;;;;;26.80;48.90;;;;;;5070679;28;20007;-54
2023/06/22 06:27:49;;;;;;;;;;;26.90;48.90;;;;;;5102138;28;19999;-53
2023/06/22 06:30:15;;;;;;;;;;;26.90;48.90;;;;;;5058524;28;20007;-53
2023/06/22 06:32:40;;;;;;;;;;;26.90;48.80;;;;;;5093618;28;20329;-54
2023/06/22 06:35:06;;;;;;;;;;;26.90;48.80;;;;;;5064216;28;19920;-54
2023/06/22 06:37:32;;;;;;;;;;;26.90;48.90;;;;;;5099198;28;19935;-54
2023/06/22 06:39:58;;;;;;;;;;;26.90;48.90;;;;;;5061845;28;19920;-53
2023/06/22 06:42:24;;;;;;;;;;;26.90;48.90;;;;;;5057914;28;19942;-53
2023/06/22 06:44:49;;;;;;;;;;;26.90;49.00;;;;;;5070140;28;19916;-53
2023/06/22 06:47:16;;;;;;;;;;;26.90;48.90;;;;;;5071898;28;20395;-54
2023/06/22 06:49:42;;;;;;;;;;;26.90;49.10;;;;;;5071576;28;19916;-52
2023/06/22 06:52:08;;;;;;;;;;;26.90;49.20;;;;;;5067751;28;19916;-53
2023/06/22 06:54:33;;;;;;;;;;;27.00;49.30;;;;;;5066645;28;19912;-54
2023/06/22 06:56:58;;;;;;;;;;;27.00;49.10;;;;;;5068848;28;19930;-54
2023/06/22 06:59:24;;;;;;;;;;;27.00;49.30;;;;;;5103452;27;19912;-53
2023/06/22 07:01:49;;;;;;;;;;;27.00;49.40;;;;;;5056301;28;20389;-53
2023/06/22 07:04:15;;;;;;;;;;;26.90;49.50;;;;;;5064371;28;20336;-53
2023/06/22 07:06:41;;;;;;;;;;;26.90;49.40;;;;;;5069788;28;20011;-54
2023/06/22 07:09:07;;;;;;;;;;;26.90;49.40;;;;;;5070069;28;19921;-54
2023/06/22 07:11:32;;;;;;;;;;;26.90;49.40;;;;;;5069072;28;19961;-54
2023/06/22 07:13:58;;;;;;;;;;;26.90;49.40;;;;;;5060269;28;19919;-54
2023/06/22 07:16:25;;;;;;;;;;;26.90;49.30;;;;;;5087976;28;20388;-54
2023/06/22 07:18:51;;;;;;;;;;;27.00;49.50;;;;;;5061732;28;19908;-54
2023/06/22 07:21:16;;;;;;;;;;;26.90;49.50;;;;;;5103809;28;20400;-54
2023/06/22 07:23:41;;;;;;;;;;;27.00;49.30;;;;;;5068591;28;19995;-53
2023/06/22 07:26:08;;;;;;;;;;;27.00;49.50;;;;;;5068224;28;19916;-53
2023/06/22 07:28:37;;;;;;;;;;;27.00;49.70;;;;;;5071545;28;19909;-54
2023/06/22 07:31:03;;;;;;;;;;;27.00;49.50;;;;;;5065808;28;19912;-54
2023/06/22 07:33:29;;;;;;;;;;;26.90;49.40;;;;;;5068971;28;20358;-53
2023/06/22 07:35:54;;;;;;;;;;;27.00;49.50;;;;;;5070045;28;19916;-54
2023/06/22 07:38:20;;;;;;;;;;;27.00;49.50;;;;;;5066083;28;19912;-54
2023/06/22 07:40:45;;;;;;;;;;;27.00;49.50;;;;;;5060258;28;19934;-53
2023/06/22 07:43:11;;;;;;;;;;;27.00;49.50;;;;;;5070987;28;19962;-53
2023/06/22 07:45:37;;;;;;;;;;;27.00;49.40;;;;;;5067385;28;20311;-53
2023/06/22 07:48:03;;;;;;;;;;;27.00;49.40;;;;;;5096535;28;19999;-53
2023/06/22 07:50:28;;;;;;;;;;;27.00;49.40;;;;;;5063509;28;20015;-53
2023/06/22 07:52:54;;;;;;;;;;;27.00;49.40;;;;;;5074204;28;19916;-53
2023/06/22 07:55:19;;;;;;;;;;;27.00;49.30;;;;;;5087842;28;19916;-53
2023/06/22 07:57:46;;;;;;;;;;;27.00;49.10;;;;;;5068558;28;19913;-53
2023/06/22 08:00:16;;;;;;;;;;;27.00;49.20;;;;;;5063874;28;19938;-53
2023/06/22 08:02:41;;;;;;;;;;;27.00;49.20;;;;;;5071595;28;19916;-52
2023/06/22 08:05:08;;;;;;;;;;;27.10;49.40;;;;;;5065789;28;19962;-53
2023/06/22 08:07:35;;;;;;;;;;;27.00;49.30;;;;;;5055839;28;19913;-54
2023/06/22 08:10:00;;;;;;;;;;;27.10;49.30;;;;;;5056321;28;19913;-54
2023/06/22 08:12:26;;;;;;;;;;;27.00;49.10;;;;;;5074635;28;19934;-53
2023/06/22 08:14:51;;;;;;;;;;;27.10;49.20;;;;;;5062165;28;19947;-53
2023/06/22 08:17:17;;;;;;;;;;;27.00;49.20;;;;;;5060766;28;19940;-53
2023/06/22 08:19:42;;;;;;;;;;;27.00;49.10;;;;;;5069766;28;20017;-53
2023/06/22 08:22:07;;;;;;;;;;;27.10;49.20;;;;;;5067290;28;19920;-54
2023/06/22 08:24:33;;;;;;;;;;;27.10;49.20;;;;;;5070760;28;19916;-53
2023/06/22 08:26:59;;;;;;;;;;;27.10;49.20;;;;;;5103207;28;19916;-53
2023/06/22 08:29:24;;;;;;;;;;;27.10;49.20;;;;;;5073102;28;20038;-53
2023/06/22 08:31:49;;;;;;;;;;;27.10;49.40;;;;;;5071227;28;20304;-53
2023/06/22 08:34:15;;;;;;;;;;;27.10;49.30;;;;;;5066330;28;20372;-54
2023/06/22 08:36:43;;;;;;;;;;;27.10;49.30;;;;;;5074066;28;19991;-53
2023/06/22 08:39:08;;;;;;;;;;;27.20;49.30;;;;;;5088432;28;19952;-54
2023/06/22 08:41:34;;;;;;;;;;;27.20;49.30;;;;;;5065772;28;19964;-53
2023/06/22 08:43:59;;;;;;;;;;;27.20;49.40;;;;;;5073712;28;19916;-53
2023/06/22 08:46:30;;;;;;;;;;;27.20;49.30;;;;;;5077575;28;19920;-53
2023/06/22 08:48:56;;;;;;;;;;;27.20;49.30;;;;;;5078550;28;19913;-53
2023/06/22 08:51:22;;;;;;;;;;;27.20;49.30;;;;;;5068595;28;19909;-53
2023/06/22 08:53:47;;;;;;;;;;;27.30;49.40;;;;;;5065249;28;20291;-53
2023/06/22 08:56:12;;;;;;;;;;;27.30;50.10;;;;;;5061748;28;19913;-53
2023/06/22 08:58:38;;;;;;;;;;;27.30;49.70;;;;;;5067624;28;19912;-53
2023/06/22 09:01:04;;;;;;;;;;;27.30;49.40;;;;;;5072714;28;19923;-53
2023/06/22 09:03:29;;;;;;;;;;;27.30;49.20;;;;;;5060263;28;20370;-53
2023/06/22 09:05:55;;;;;;;;;;;27.30;49.20;;;;;;5072633;28;19959;-53
2023/06/22 09:08:21;;;;;;;;;;;27.30;49.20;;;;;;5062837;28;19947;-53
2023/06/22 09:10:46;;;;;;;;;;;27.30;49.20;;;;;;5065081;28;20062;-53
2023/06/22 09:13:11;;;;;;;;;;;27.30;49.10;;;;;;5065854;28;19957;-54
2023/06/22 09:15:37;;;;;;;;;;;27.40;49.20;;;;;;5071691;28;20007;-53
2023/06/22 09:18:03;;;;;;;;;;;27.40;49.20;;;;;;5055943;28;19912;-53
2023/06/22 09:20:28;;;;;;;;;;;27.50;49.20;;;;;;5073274;28;19908;-53
2023/06/22 09:22:54;;;;;;;;;;;27.40;49.10;;;;;;5069133;28;19943;-53
2023/06/22 09:25:20;;;;;;;;;;;27.50;49.00;;;;;;5072731;28;19912;-53
2023/06/22 09:27:46;;;;;;;;;;;27.50;49.00;;;;;;5100638;27;19924;-53
2023/06/22 09:30:12;;;;;;;;;;;27.50;49.00;;;;;;5067407;28;19919;-54
2023/06/22 09:32:37;;;;;;;;;;;27.60;48.70;;;;;;5067447;28;19938;-53
2023/06/22 09:35:05;;;;;;;;;;;27.60;48.70;;;;;;5056556;28;20024;-53
2023/06/22 09:37:30;;;;;;;;;;;27.60;48.70;;;;;;5065855;28;19939;-53
2023/06/22 09:39:56;;;;;;;;;;;27.60;48.80;;;;;;5064212;28;20368;-53
2023/06/22 09:42:21;;;;;;;;;;;27.70;48.60;;;;;;5069407;28;19955;-53
2023/06/22 09:44:47;;;;;;;;;;;27.70;48.50;;;;;;5064158;28;19916;-53
2023/06/22 09:47:12;;;;;;;;;;;27.80;48.50;;;;;;5066232;28;19931;-53
2023/06/22 09:49:38;;;;;;;;;;;27.70;48.60;;;;;;5063450;28;20284;-53
2023/06/22 09:52:03;;;;;;;;;;;27.70;48.50;;;;;;5071260;28;19916;-53
2023/06/22 09:54:29;;;;;;;;;;;27.70;48.70;;;;;;5070823;28;19927;-54
2023/06/22 09:56:54;;;;;;;;;;;27.80;48.80;;;;;;5069803;28;19943;-54
2023/06/22 09:59:20;;;;;;;;;;;27.80;48.70;;;;;;5070756;28;19962;-53
2023/06/22 10:01:45;;;;;;;;;;;27.80;48.60;;;;;;5062612;28;20008;-53
2023/06/22 10:04:11;;;;;;;;;;;27.90;48.40;;;;;;5068449;28;19912;-53
2023/06/22 10:06:36;;;;;;;;;;;27.90;48.30;;;;;;5065861;28;20351;-53
2023/06/22 10:09:01;;;;;;;;;;;27.80;48.50;;;;;;5068908;28;19954;-53
2023/06/22 10:11:30;;;;;;;;;;;27.80;48.30;;;;;;5064763;28;19940;-54
2023/06/22 10:13:56;;;;;;;;;;;27.80;48.30;;;;;;5071093;28;20434;-53
2023/06/22 10:16:23;;;;;;;;;;;27.80;48.10;;;;;;5066982;28;19951;-53
2023/06/22 10:18:49;;;;;;;;;;;27.80;48.30;;;;;;5065731;28;20296;-54
2023/06/22 10:21:15;;;;;;;;;;;27.80;48.40;;;;;;5061099;28;19969;-53
2023/06/22 10:23:40;;;;;;;;;;;27.80;48.40;;;;;;5065606;28;19958;-53
2023/06/22 10:26:06;;;;;;;;;;;27.80;48.30;;;;;;5067324;28;20055;-54
2023/06/22 10:28:31;;;;;;;;;;;27.90;48.20;;;;;;5072275;28;19916;-53
2023/06/22 10:30:57;;;;;;;;;;;27.90;48.20;;;;;;5071200;28;19928;-53
2023/06/22 10:33:23;;;;;;;;;;;28.00;48.30;;;;;;5069335;28;20010;-54
2023/06/22 10:35:48;;;;;;;;;;;27.90;48.20;;;;;;5071681;28;20360;-53
2023/06/22 10:38:14;;;;;;;;;;;28.00;48.10;;;;;;5068145;28;19970;-53
2023/06/22 10:40:39;;;;;;;;;;;28.00;48.00;;;;;;5067145;28;19916;-54
2023/06/22 10:43:05;;;;;;;;;;;28.10;48.20;;;;;;5060460;28;19916;-53
2023/06/22 10:45:30;;;;;;;;;;;28.10;48.20;;;;;;5067442;28;19947;-54
2023/06/22 10:47:56;;;;;;;;;;;28.10;48.00;;;;;;5069416;28;19916;-54
2023/06/22 10:50:23;;;;;;;;;;;28.20;48.20;;;;;;5071577;28;19908;-54
2023/06/22 10:52:49;;;;;;;;;;;28.20;48.00;;;;;;5071832;28;19947;-54
2023/06/22 10:55:14;;;;;;;;;;;28.30;48.00;;;;;;5065542;28;19916;-54
2023/06/22 10:57:43;;;;;;;;;;;28.30;47.90;;;;;;5065435;28;19917;-54
2023/06/22 11:00:08;;;;;;;;;;;28.30;47.90;;;;;;5059552;28;19917;-54
2023/06/22 11:02:34;;;;;;;;;;;28.30;47.90;;;;;;5061264;28;19920;-53
2023/06/22 11:05:00;;;;;;;;;;;28.20;48.20;;;;;;5061709;28;19995;-53
2023/06/22 11:07:27;;;;;;;;;;;28.30;48.20;;;;;;5059529;28;19917;-53
2023/06/22 11:09:52;;;;;;;;;;;28.40;48.00;;;;;;5068589;28;19913;-54
2023/06/22 11:12:18;;;;;;;;;;;28.50;48.00;;;;;;5067512;28;19924;-54
2023/06/22 11:14:43;;;;;;;;;;;28.50;47.80;;;;;;5064138;28;20007;-54
2023/06/22 11:17:09;;;;;;;;;;;28.50;47.90;;;;;;5066255;28;20361;-55
2023/06/22 11:19:34;;;;;;;;;;;28.60;47.70;;;;;;5099819;28;20319;-54
2023/06/22 11:22:00;;;;;;;;;;;28.50;47.80;;;;;;5068310;28;20276;-54
2023/06/22 11:24:25;;;;;;;;;;;28.40;47.90;;;;;;5069748;28;19913;-54
2023/06/22 11:26:51;;;;;;;;;;;28.50;48.10;;;;;;5074314;28;20429;-54
2023/06/22 11:29:16;;;;;;;;;;;28.50;48.30;;;;;;5071983;28;20485;-54
2023/06/22 11:31:43;;;;;;;;;;;28.50;48.20;;;;;;5062860;28;20374;-54
2023/06/22 11:34:08;;;;;;;;;;;28.60;47.90;;;;;;5072380;28;19978;-54
2023/06/22 11:36:35;;;;;;;;;;;28.60;48.00;;;;;;5063193;28;20386;-55
2023/06/22 11:39:00;;;;;;;;;;;28.50;48.10;;;;;;5073579;28;20314;-55
2023/06/22 11:41:26;;;;;;;;;;;28.60;48.00;;;;;;5069434;28;19982;-55
2023/06/22 11:43:51;;;;;;;;;;;28.70;47.70;;;;;;5072650;28;19912;-54
2023/06/22 11:46:17;;;;;;;;;;;28.70;47.80;;;;;;5071050;28;20423;-54
2023/06/22 11:48:42;;;;;;;;;;;28.60;48.10;;;;;;5064700;28;20312;-55
2023/06/22 11:51:08;;;;;;;;;;;28.60;48.10;;;;;;5067457;28;19919;-55
2023/06/22 11:53:34;;;;;;;;;;;28.60;48.00;;;;;;5069511;28;19994;-54
2023/06/22 11:56:00;;;;;;;;;;;28.50;48.10;;;;;;5065710;28;20387;-54
2023/06/22 11:58:25;;;;;;;;;;;28.50;48.20;;;;;;5068986;28;19916;-55
2023/06/22 12:00:51;;;;;;;;;;;28.40;48.40;;;;;;5067695;28;20365;-55
2023/06/22 12:03:17;;;;;;;;;;;28.40;48.40;;;;;;5066245;28;19920;-54
2023/06/22 12:05:42;;;;;;;;;;;28.40;48.60;;;;;;5073771;28;19909;-54
2023/06/22 12:08:08;;;;;;;;;;;28.40;48.60;;;;;;5072789;28;19917;-54
2023/06/22 12:10:34;;;;;;;;;;;28.40;48.90;;;;;;5073478;28;19956;-54
2023/06/22 12:13:00;;;;;;;;;;;28.50;48.80;;;;;;5067756;28;20006;-55
2023/06/22 12:15:25;;;;;;;;;;;28.60;49.00;;;;;;5074575;28;19916;-55
2023/06/22 12:17:51;;;;;;;;;;;28.60;48.50;;;;;;5073627;28;19912;-54
2023/06/22 12:20:16;;;;;;;;;;;28.60;48.40;;;;;;5074376;28;20071;-55
2023/06/22 12:22:41;;;;;;;;;;;28.70;48.50;;;;;;5069085;28;19917;-55
2023/06/22 12:25:07;;;;;;;;;;;28.70;48.30;;;;;;5062450;28;19966;-54
2023/06/22 12:27:33;;;;;;;;;;;28.60;48.40;;;;;;5073940;28;19966;-54
2023/06/22 12:29:58;;;;;;;;;;;28.60;48.70;;;;;;5072363;28;19913;-55
2023/06/22 12:32:24;;;;;;;;;;;28.50;48.60;;;;;;5066106;28;19936;-55
2023/06/22 12:34:49;;;;;;;;;;;28.60;48.80;;;;;;5061282;28;20001;-55
2023/06/22 12:37:15;;;;;;;;;;;28.60;48.90;;;;;;5068006;28;19912;-55
2023/06/22 12:39:40;;;;;;;;;;;28.60;48.80;;;;;;5072668;28;19942;-55
2023/06/22 12:42:08;;;;;;;;;;;28.60;48.80;;;;;;5074487;28;19912;-54
2023/06/22 12:44:40;;;;;;;;;;;28.60;48.70;;;;;;5065870;28;19916;-53
2023/06/22 12:47:06;;;;;;;;;;;28.60;48.80;;;;;;5072743;28;19924;-54
2023/06/22 12:49:32;;;;;;;;;;;28.60;48.80;;;;;;5065757;28;20301;-54
2023/06/22 12:51:57;;;;;;;;;;;28.60;48.70;;;;;;5069025;28;19917;-55
2023/06/22 12:54:22;;;;;;;;;;;28.60;48.90;;;;;;5069741;28;19957;-55
2023/06/22 12:56:49;;;;;;;;;;;28.50;49.00;;;;;;5062187;28;20003;-54
2023/06/22 12:59:17;;;;;;;;;;;28.50;49.00;;;;;;5053765;28;19951;-54
2023/06/22 13:01:43;;;;;;;;;;;28.50;49.10;;;;;;5058004;28;20809;-54
2023/06/22 13:04:11;;;;;;;;;;;28.60;49.10;;;;;;5065197;28;19956;-55
2023/06/22 13:06:36;;;;;;;;;;;28.60;49.10;;;;;;5072325;28;20014;-54
2023/06/22 13:09:03;;;;;;;;;;;28.60;49.10;;;;;;5059807;28;20017;-54
2023/06/22 13:11:28;;;;;;;;;;;28.60;49.10;;;;;;5068286;28;19912;-55
2023/06/22 13:13:54;;;;;;;;;;;28.60;49.00;;;;;;5063902;28;19935;-54
2023/06/22 13:16:19;;;;;;;;;;;28.60;49.20;;;;;;5099050;28;19923;-55
2023/06/22 13:18:45;;;;;;;;;;;28.50;49.20;;;;;;5072062;28;19908;-54
2023/06/22 13:21:10;;;;;;;;;;;28.40;49.20;;;;;;5103382;28;19917;-55
2023/06/22 13:23:35;;;;;;;;;;;28.30;49.70;;;;;;5071957;28;19913;-54
2023/06/22 13:26:01;;;;;;;;;;;28.40;49.60;;;;;;5058439;28;19916;-55
2023/06/22 13:28:26;;;;;;;;;;;28.30;49.40;;;;;;5064016;28;19912;-54
2023/06/22 13:30:52;;;;;;;;;;;28.30;49.40;;;;;;5069224;28;20009;-54
2023/06/22 13:33:17;;;;;;;;;;;28.40;49.40;;;;;;5064380;28;19920;-54
2023/06/22 13:35:43;;;;;;;;;;;28.30;49.40;;;;;;5071466;28;19944;-54
2023/06/22 13:38:09;;;;;;;;;;;28.40;49.30;;;;;;5072853;28;19912;-54
2023/06/22 13:40:34;;;;;;;;;;;28.30;49.50;;;;;;5072304;28;19957;-55
2023/06/22 13:43:00;;;;;;;;;;;28.30;49.70;;;;;;5117312;27;19915;-54
2023/06/22 13:45:26;;;;;;;;;;;28.20;49.70;;;;;;5074213;28;19920;-54
2023/06/22 13:47:51;;;;;;;;;;;28.20;49.80;;;;;;5071589;28;19908;-55
2023/06/22 13:50:16;;;;;;;;;;;28.20;49.80;;;;;;5072820;28;20302;-55
2023/06/22 13:52:42;;;;;;;;;;;28.30;49.70;;;;;;5065830;28;19966;-54
2023/06/22 13:55:08;;;;;;;;;;;28.30;49.60;;;;;;5059634;28;19956;-55
2023/06/22 13:57:34;;;;;;;;;;;28.20;49.70;;;;;;5069500;28;19912;-55
2023/06/22 13:59:59;;;;;;;;;;;28.20;49.90;;;;;;5072251;28;20424;-55
2023/06/22 14:02:28;;;;;;;;;;;28.20;49.80;;;;;;5072533;28;20015;-54
2023/06/22 14:04:53;;;;;;;;;;;28.10;49.80;;;;;;5061549;28;20404;-54
2023/06/22 14:07:20;;;;;;;;;;;28.10;50.00;;;;;;5060162;28;20019;-55
2023/06/22 14:09:46;;;;;;;;;;;28.00;50.00;;;;;;5062442;28;19928;-54